sensor_id;sensor_type;location;lat;lon;timestamp;temperature;humidity
13694;DHT22;6919;52.344;14.518;2022-07-01T00:01:49;19.50;99.90
13694;DHT22;6919;52.344;14.518;2022-07-01T00:04:17;19.40;99.90
13694;DHT22;6919;52.344;14.518;2022-07-01T00:06:46;19.30;99.90
13694;DHT22;6919;52.344;14.518;2022-07-01T00:09:15;19.40;99.90
13694;DHT22;6919;52.344;14.518;2022-07-01T00:11:43;19.30;99.90
13694;DHT22;6919;52.344;14.518;2022-07-01T00:14:11;19.20;99.90
13694;DHT22;6919;52.344;14.518;2022-07-01T00:16:40;19.30;99.90
13694;DHT22;6919;52.344;14.518;2022-07-01T00:19:08;19.20;99.90
13694;DHT22;6919;52.344;14.518;2022-07-01T00:21:37;19.20;99.90
13694;DHT22;6919;52.344;14.518;2022-07-01T00:24:06;19.20;99.90
13694;DHT22;6919;52.344;14.518;2022-07-01T00:26:36;19.10;99.90
13694;DHT22;6919;52.344;14.518;2022-07-01T00:29:04;19.10;99.90
13694;DHT22;6919;52.344;14.518;2022-07-01T00:31:32;19.10;99.90
13694;DHT22;6919;52.344;14.518;2022-07-01T00:34:00;19.20;99.90
13694;DHT22;6919;52.344;14.518;2022-07-01T00:36:29;19.20;99.90
13694;DHT22;6919;52.344;14.518;2022-07-01T00:38:58;19.20;99.90
13694;DHT22;6919;52.344;14.518;2022-07-01T00:41:26;19.10;99.90
13694;DHT22;6919;52.344;14.518;2022-07-01T00:43:56;19.10;99.90
13694;DHT22;6919;52.344;14.518;2022-07-01T00:46:27;19.10;99.90
13694;DHT22;6919;52.344;14.518;2022-07-01T00:48:58;19.00;99.90
13694;DHT22;6919;52.344;14.518;2022-07-01T00:51:28;19.00;99.90
13694;DHT22;6919;52.344;14.518;2022-07-01T00:53:57;18.90;99.90
13694;DHT22;6919;52.344;14.518;2022-07-01T00:56:27;18.90;99.90
13694;DHT22;6919;52.344;14.518;2022-07-01T00:58:57;18.80;99.90
13694;DHT22;6919;52.344;14.518;2022-07-01T01:01:25;18.80;99.90
13694;DHT22;6919;52.344;14.518;2022-07-01T01:03:53;18.80;99.90
13694;DHT22;6919;52.344;14.518;2022-07-01T01:06:22;18.80;99.90
13694;DHT22;6919;52.344;14.518;2022-07-01T01:08:50;18.80;99.90
13694;DHT22;6919;52.344;14.518;2022-07-01T01:11:19;18.80;99.90
13694;DHT22;6919;52.344;14.518;2022-07-01T01:13:48;18.80;99.90
13694;DHT22;6919;52.344;14.518;2022-07-01T01:16:19;18.70;99.90
13694;DHT22;6919;52.344;14.518;2022-07-01T01:18:49;18.70;99.90
13694;DHT22;6919;52.344;14.518;2022-07-01T01:21:18;18.70;99.90
13694;DHT22;6919;52.344;14.518;2022-07-01T01:23:47;18.70;99.90
13694;DHT22;6919;52.344;14.518;2022-07-01T01:26:17;18.70;99.90
13694;DHT22;6919;52.344;14.518;2022-07-01T01:28:47;18.70;99.90
13694;DHT22;6919;52.344;14.518;2022-07-01T01:31:17;18.70;99.90
13694;DHT22;6919;52.344;14.518;2022-07-01T01:33:46;18.80;99.90
13694;DHT22;6919;52.344;14.518;2022-07-01T01:36:14;18.80;99.90
13694;DHT22;6919;52.344;14.518;2022-07-01T01:38:43;18.70;99.90
13694;DHT22;6919;52.344;14.518;2022-07-01T01:41:12;18.70;99.90
13694;DHT22;6919;52.344;14.518;2022-07-01T01:43:40;18.60;99.90
13694;DHT22;6919;52.344;14.518;2022-07-01T01:46:09;18.60;99.90
13694;DHT22;6919;52.344;14.518;2022-07-01T01:48:37;18.60;99.90
13694;DHT22;6919;52.344;14.518;2022-07-01T01:51:05;18.70;99.90
13694;DHT22;6919;52.344;14.518;2022-07-01T01:53:33;18.80;99.90
13694;DHT22;6919;52.344;14.518;2022-07-01T01:56:03;18.70;99.90
13694;DHT22;6919;52.344;14.518;2022-07-01T01:58:32;18.70;99.90
13694;DHT22;6919;52.344;14.518;2022-07-01T02:01:00;18.70;99.90
13694;DHT22;6919;52.344;14.518;2022-07-01T02:03:29;18.60;99.90
13694;DHT22;6919;52.344;14.518;2022-07-01T02:05:57;18.60;99.90
13694;DHT22;6919;52.344;14.518;2022-07-01T02:08:26;18.50;99.90
13694;DHT22;6919;52.344;14.518;2022-07-01T02:10:54;18.50;99.90
13694;DHT22;6919;52.344;14.518;2022-07-01T02:13:29;18.50;99.90
13694;DHT22;6919;52.344;14.518;2022-07-01T02:15:58;18.60;99.90
13694;DHT22;6919;52.344;14.518;2022-07-01T02:18:27;18.50;99.90
13694;DHT22;6919;52.344;14.518;2022-07-01T02:20:55;18.50;99.90
13694;DHT22;6919;52.344;14.518;2022-07-01T02:23:23;18.50;99.90
13694;DHT22;6919;52.344;14.518;2022-07-01T02:25:52;18.40;99.90
13694;DHT22;6919;52.344;14.518;2022-07-01T02:28:20;18.40;99.90
13694;DHT22;6919;52.344;14.518;2022-07-01T02:30:50;18.40;99.90
13694;DHT22;6919;52.344;14.518;2022-07-01T02:33:18;18.40;99.90
13694;DHT22;6919;52.344;14.518;2022-07-01T02:35:46;18.40;99.90
13694;DHT22;6919;52.344;14.518;2022-07-01T02:38:16;18.40;99.90
13694;DHT22;6919;52.344;14.518;2022-07-01T02:40:44;18.50;99.90
13694;DHT22;6919;52.344;14.518;2022-07-01T02:43:13;18.60;99.90
13694;DHT22;6919;52.344;14.518;2022-07-01T02:45:42;18.70;99.90
13694;DHT22;6919;52.344;14.518;2022-07-01T02:48:12;18.60;99.90
13694;DHT22;6919;52.344;14.518;2022-07-01T02:50:40;18.60;99.90
13694;DHT22;6919;52.344;14.518;2022-07-01T02:53:09;18.50;99.90
13694;DHT22;6919;52.344;14.518;2022-07-01T02:55:37;18.40;99.90
13694;DHT22;6919;52.344;14.518;2022-07-01T02:58:05;18.40;99.90
13694;DHT22;6919;52.344;14.518;2022-07-01T03:00:33;18.40;99.90
13694;DHT22;6919;52.344;14.518;2022-07-01T03:03:02;18.40;99.90
13694;DHT22;6919;52.344;14.518;2022-07-01T03:05:31;18.40;99.90
13694;DHT22;6919;52.344;14.518;2022-07-01T03:07:59;18.40;99.90
13694;DHT22;6919;52.344;14.518;2022-07-01T03:10:28;18.40;99.90
13694;DHT22;6919;52.344;14.518;2022-07-01T03:12:56;18.40;99.90
13694;DHT22;6919;52.344;14.518;2022-07-01T03:15:26;18.40;99.90
13694;DHT22;6919;52.344;14.518;2022-07-01T03:17:54;18.40;99.90
13694;DHT22;6919;52.344;14.518;2022-07-01T03:20:22;18.40;99.90
13694;DHT22;6919;52.344;14.518;2022-07-01T03:22:52;18.40;99.90
13694;DHT22;6919;52.344;14.518;2022-07-01T03:25:20;18.40;99.90
13694;DHT22;6919;52.344;14.518;2022-07-01T03:27:48;18.50;99.90
13694;DHT22;6919;52.344;14.518;2022-07-01T03:30:16;18.40;99.90
13694;DHT22;6919;52.344;14.518;2022-07-01T03:32:45;18.50;99.90
13694;DHT22;6919;52.344;14.518;2022-07-01T03:35:14;18.50;99.90
13694;DHT22;6919;52.344;14.518;2022-07-01T03:38:03;18.50;99.90
13694;DHT22;6919;52.344;14.518;2022-07-01T03:40:32;18.50;99.90
13694;DHT22;6919;52.344;14.518;2022-07-01T03:43:00;18.60;99.90
13694;DHT22;6919;52.344;14.518;2022-07-01T03:45:29;18.70;99.90
13694;DHT22;6919;52.344;14.518;2022-07-01T03:47:57;18.70;99.90
13694;DHT22;6919;52.344;14.518;2022-07-01T03:50:26;18.80;99.90
13694;DHT22;6919;52.344;14.518;2022-07-01T03:52:54;18.80;99.90
13694;DHT22;6919;52.344;14.518;2022-07-01T03:55:42;19.00;99.90
13694;DHT22;6919;52.344;14.518;2022-07-01T03:58:10;19.00;99.90
13694;DHT22;6919;52.344;14.518;2022-07-01T04:00:38;19.10;99.90
13694;DHT22;6919;52.344;14.518;2022-07-01T04:03:07;19.20;99.90
13694;DHT22;6919;52.344;14.518;2022-07-01T04:05:36;19.40;99.90
13694;DHT22;6919;52.344;14.518;2022-07-01T04:08:07;19.50;99.90
13694;DHT22;6919;52.344;14.518;2022-07-01T04:10:39;19.60;99.90
13694;DHT22;6919;52.344;14.518;2022-07-01T04:13:09;19.80;99.90
13694;DHT22;6919;52.344;14.518;2022-07-01T04:15:58;19.90;99.90
13694;DHT22;6919;52.344;14.518;2022-07-01T04:18:28;20.00;99.90
13694;DHT22;6919;52.344;14.518;2022-07-01T04:20:57;20.10;99.90
13694;DHT22;6919;52.344;14.518;2022-07-01T04:23:44;20.20;99.90
13694;DHT22;6919;52.344;14.518;2022-07-01T04:26:13;20.40;99.90
13694;DHT22;6919;52.344;14.518;2022-07-01T04:29:03;20.50;99.90
13694;DHT22;6919;52.344;14.518;2022-07-01T04:31:31;20.80;99.90
13694;DHT22;6919;52.344;14.518;2022-07-01T04:33:59;21.10;99.90
13694;DHT22;6919;52.344;14.518;2022-07-01T04:36:28;21.30;99.90
13694;DHT22;6919;52.344;14.518;2022-07-01T04:38:56;21.50;99.90
13694;DHT22;6919;52.344;14.518;2022-07-01T04:41:25;21.80;99.90
13694;DHT22;6919;52.344;14.518;2022-07-01T04:44:11;22.00;99.90
13694;DHT22;6919;52.344;14.518;2022-07-01T04:46:39;22.20;99.90
13694;DHT22;6919;52.344;14.518;2022-07-01T04:49:08;22.40;99.90
13694;DHT22;6919;52.344;14.518;2022-07-01T04:51:36;22.60;99.90
13694;DHT22;6919;52.344;14.518;2022-07-01T04:54:06;22.90;99.90
13694;DHT22;6919;52.344;14.518;2022-07-01T04:56:38;23.10;99.90
13694;DHT22;6919;52.344;14.518;2022-07-01T04:59:10;23.30;99.90
13694;DHT22;6919;52.344;14.518;2022-07-01T05:01:39;23.40;99.90
13694;DHT22;6919;52.344;14.518;2022-07-01T05:04:07;23.50;99.90
13694;DHT22;6919;52.344;14.518;2022-07-01T05:06:36;23.50;99.90
13694;DHT22;6919;52.344;14.518;2022-07-01T05:09:04;23.40;99.90
13694;DHT22;6919;52.344;14.518;2022-07-01T05:11:33;23.60;99.90
13694;DHT22;6919;52.344;14.518;2022-07-01T05:14:02;23.90;99.90
13694;DHT22;6919;52.344;14.518;2022-07-01T05:16:30;24.20;99.90
13694;DHT22;6919;52.344;14.518;2022-07-01T05:18:59;24.40;99.90
13694;DHT22;6919;52.344;14.518;2022-07-01T05:21:44;24.70;99.90
13694;DHT22;6919;52.344;14.518;2022-07-01T05:24:28;25.00;99.90
13694;DHT22;6919;52.344;14.518;2022-07-01T05:26:58;25.20;1.00
13694;DHT22;6919;52.344;14.518;2022-07-01T05:29:29;25.10;1.00
13694;DHT22;6919;52.344;14.518;2022-07-01T05:31:57;25.20;1.00
13694;DHT22;6919;52.344;14.518;2022-07-01T05:34:26;25.30;1.00
13694;DHT22;6919;52.344;14.518;2022-07-01T05:36:54;25.60;1.00
13694;DHT22;6919;52.344;14.518;2022-07-01T05:39:22;25.60;1.00
13694;DHT22;6919;52.344;14.518;2022-07-01T05:41:51;25.70;1.00
13694;DHT22;6919;52.344;14.518;2022-07-01T05:44:19;25.70;1.00
13694;DHT22;6919;52.344;14.518;2022-07-01T05:46:49;25.90;1.00
13694;DHT22;6919;52.344;14.518;2022-07-01T05:49:18;26.00;1.00
13694;DHT22;6919;52.344;14.518;2022-07-01T05:51:46;26.20;1.00
13694;DHT22;6919;52.344;14.518;2022-07-01T05:54:14;26.30;1.00
13694;DHT22;6919;52.344;14.518;2022-07-01T05:56:43;26.50;1.00
13694;DHT22;6919;52.344;14.518;2022-07-01T05:59:11;26.50;1.00
13694;DHT22;6919;52.344;14.518;2022-07-01T06:01:39;26.60;1.00
13694;DHT22;6919;52.344;14.518;2022-07-01T06:04:08;26.50;1.00
13694;DHT22;6919;52.344;14.518;2022-07-01T06:06:37;26.50;1.00
13694;DHT22;6919;52.344;14.518;2022-07-01T06:09:05;26.30;1.00
13694;DHT22;6919;52.344;14.518;2022-07-01T06:11:33;26.30;1.00
13694;DHT22;6919;52.344;14.518;2022-07-01T06:14:01;26.30;1.00
13694;DHT22;6919;52.344;14.518;2022-07-01T06:16:30;26.50;1.00
13694;DHT22;6919;52.344;14.518;2022-07-01T06:18:58;26.60;1.00
13694;DHT22;6919;52.344;14.518;2022-07-01T06:21:28;26.90;1.00
13694;DHT22;6919;52.344;14.518;2022-07-01T06:23:56;27.20;99.90
13694;DHT22;6919;52.344;14.518;2022-07-01T06:26:25;27.40;99.90
13694;DHT22;6919;52.344;14.518;2022-07-01T06:28:53;27.50;82.00
13694;DHT22;6919;52.344;14.518;2022-07-01T06:31:22;27.60;99.30
13694;DHT22;6919;52.344;14.518;2022-07-01T06:33:51;27.90;1.00
13694;DHT22;6919;52.344;14.518;2022-07-01T06:36:19;27.90;1.00
13694;DHT22;6919;52.344;14.518;2022-07-01T06:38:49;28.10;99.90
13694;DHT22;6919;52.344;14.518;2022-07-01T06:41:17;28.10;1.00
13694;DHT22;6919;52.344;14.518;2022-07-01T06:43:55;28.50;1.00
13694;DHT22;6919;52.344;14.518;2022-07-01T06:46:24;28.60;99.90
13694;DHT22;6919;52.344;14.518;2022-07-01T06:48:54;28.80;99.90
13694;DHT22;6919;52.344;14.518;2022-07-01T06:51:22;28.50;1.00
13694;DHT22;6919;52.344;14.518;2022-07-01T06:53:52;28.50;99.90
13694;DHT22;6919;52.344;14.518;2022-07-01T06:56:20;28.60;99.90
13694;DHT22;6919;52.344;14.518;2022-07-01T06:58:48;28.40;99.90
13694;DHT22;6919;52.344;14.518;2022-07-01T07:01:17;28.50;1.00
13694;DHT22;6919;52.344;14.518;2022-07-01T07:03:45;29.00;99.90
13694;DHT22;6919;52.344;14.518;2022-07-01T07:06:13;29.00;99.90
13694;DHT22;6919;52.344;14.518;2022-07-01T07:08:42;29.30;1.00
13694;DHT22;6919;52.344;14.518;2022-07-01T07:11:11;29.70;35.80
13694;DHT22;6919;52.344;14.518;2022-07-01T07:13:42;29.90;1.00
13694;DHT22;6919;52.344;14.518;2022-07-01T07:16:10;29.80;99.90
13694;DHT22;6919;52.344;14.518;2022-07-01T07:18:38;29.50;1.00
13694;DHT22;6919;52.344;14.518;2022-07-01T07:21:06;29.20;1.00
13694;DHT22;6919;52.344;14.518;2022-07-01T07:23:35;29.20;99.90
13694;DHT22;6919;52.344;14.518;2022-07-01T07:26:04;29.50;56.70
13694;DHT22;6919;52.344;14.518;2022-07-01T07:28:34;29.90;1.00
13694;DHT22;6919;52.344;14.518;2022-07-01T07:31:02;30.30;99.90
13694;DHT22;6919;52.344;14.518;2022-07-01T07:33:31;30.20;99.90
13694;DHT22;6919;52.344;14.518;2022-07-01T07:35:59;30.60;18.00
13694;DHT22;6919;52.344;14.518;2022-07-01T07:38:27;30.40;30.00
13694;DHT22;6919;52.344;14.518;2022-07-01T07:40:56;30.30;99.50
13694;DHT22;6919;52.344;14.518;2022-07-01T07:43:30;30.00;1.00
13694;DHT22;6919;52.344;14.518;2022-07-01T07:46:02;30.20;99.90
13694;DHT22;6919;52.344;14.518;2022-07-01T07:48:31;30.30;1.00
13694;DHT22;6919;52.344;14.518;2022-07-01T07:51:00;30.20;99.90
13694;DHT22;6919;52.344;14.518;2022-07-01T07:53:28;30.40;1.00
13694;DHT22;6919;52.344;14.518;2022-07-01T07:55:57;30.50;1.00
13694;DHT22;6919;52.344;14.518;2022-07-01T07:58:25;30.90;99.90
13694;DHT22;6919;52.344;14.518;2022-07-01T08:00:54;30.90;99.90
13694;DHT22;6919;52.344;14.518;2022-07-01T08:03:23;30.70;99.90
13694;DHT22;6919;52.344;14.518;2022-07-01T08:05:51;30.90;99.90
13694;DHT22;6919;52.344;14.518;2022-07-01T08:08:19;31.00;83.70
13694;DHT22;6919;52.344;14.518;2022-07-01T08:10:49;30.90;99.90
13694;DHT22;6919;52.344;14.518;2022-07-01T08:13:17;30.50;1.00
13694;DHT22;6919;52.344;14.518;2022-07-01T08:15:45;30.40;1.00
13694;DHT22;6919;52.344;14.518;2022-07-01T08:18:15;30.60;99.90
13694;DHT22;6919;52.344;14.518;2022-07-01T08:20:43;30.90;99.90
13694;DHT22;6919;52.344;14.518;2022-07-01T08:23:11;31.30;99.90
13694;DHT22;6919;52.344;14.518;2022-07-01T08:25:40;31.40;1.00
13694;DHT22;6919;52.344;14.518;2022-07-01T08:28:08;31.30;99.90
13694;DHT22;6919;52.344;14.518;2022-07-01T08:30:36;31.40;99.90
13694;DHT22;6919;52.344;14.518;2022-07-01T08:33:05;31.10;1.00
13694;DHT22;6919;52.344;14.518;2022-07-01T08:35:35;30.70;99.90
13694;DHT22;6919;52.344;14.518;2022-07-01T08:38:04;31.00;99.90
13694;DHT22;6919;52.344;14.518;2022-07-01T08:40:33;31.20;99.90
13694;DHT22;6919;52.344;14.518;2022-07-01T08:43:03;31.30;99.90
13694;DHT22;6919;52.344;14.518;2022-07-01T08:45:34;31.10;10.00
13694;DHT22;6919;52.344;14.518;2022-07-01T08:48:05;30.70;99.90
13694;DHT22;6919;52.344;14.518;2022-07-01T08:50:37;30.80;99.90
13694;DHT22;6919;52.344;14.518;2022-07-01T08:53:07;30.90;99.90
13694;DHT22;6919;52.344;14.518;2022-07-01T08:55:37;31.30;13.30
13694;DHT22;6919;52.344;14.518;2022-07-01T08:58:19;31.70;1.00
13694;DHT22;6919;52.344;14.518;2022-07-01T09:00:50;31.80;1.00
13694;DHT22;6919;52.344;14.518;2022-07-01T09:03:26;31.90;1.00
13694;DHT22;6919;52.344;14.518;2022-07-01T09:05:55;31.80;1.00
13694;DHT22;6919;52.344;14.518;2022-07-01T09:08:27;31.70;1.00
13694;DHT22;6919;52.344;14.518;2022-07-01T09:10:55;31.60;1.00
13694;DHT22;6919;52.344;14.518;2022-07-01T09:13:23;31.80;1.00
13694;DHT22;6919;52.344;14.518;2022-07-01T09:15:56;31.60;1.00
13694;DHT22;6919;52.344;14.518;2022-07-01T09:18:25;31.20;1.00
13694;DHT22;6919;52.344;14.518;2022-07-01T09:20:54;30.70;1.00
13694;DHT22;6919;52.344;14.518;2022-07-01T09:23:23;30.50;1.00
13694;DHT22;6919;52.344;14.518;2022-07-01T09:25:51;30.30;99.90
13694;DHT22;6919;52.344;14.518;2022-07-01T09:28:23;30.60;1.00
13694;DHT22;6919;52.344;14.518;2022-07-01T09:30:54;30.60;1.00
13694;DHT22;6919;52.344;14.518;2022-07-01T09:33:26;30.50;1.00
13694;DHT22;6919;52.344;14.518;2022-07-01T09:35:57;30.60;25.90
13694;DHT22;6919;52.344;14.518;2022-07-01T09:38:26;31.00;1.00
13694;DHT22;6919;52.344;14.518;2022-07-01T09:41:00;31.10;1.00
13694;DHT22;6919;52.344;14.518;2022-07-01T09:43:31;31.20;1.00
13694;DHT22;6919;52.344;14.518;2022-07-01T09:46:02;31.40;1.00
13694;DHT22;6919;52.344;14.518;2022-07-01T09:48:45;31.50;1.00
13694;DHT22;6919;52.344;14.518;2022-07-01T09:51:15;32.10;1.00
13694;DHT22;6919;52.344;14.518;2022-07-01T09:53:44;32.50;1.00
13694;DHT22;6919;52.344;14.518;2022-07-01T09:56:12;33.00;1.00
13694;DHT22;6919;52.344;14.518;2022-07-01T09:58:40;32.90;1.00
13694;DHT22;6919;52.344;14.518;2022-07-01T10:01:12;33.00;1.00
13694;DHT22;6919;52.344;14.518;2022-07-01T10:03:41;32.70;99.90
13694;DHT22;6919;52.344;14.518;2022-07-01T10:06:34;31.60;1.00
13694;DHT22;6919;52.344;14.518;2022-07-01T10:09:39;31.10;1.00
13694;DHT22;6919;52.344;14.518;2022-07-01T10:12:31;30.60;1.00
13694;DHT22;6919;52.344;14.518;2022-07-01T10:15:05;30.60;1.00
13694;DHT22;6919;52.344;14.518;2022-07-01T10:17:40;30.40;1.00
13694;DHT22;6919;52.344;14.518;2022-07-01T10:20:11;30.30;1.00
13694;DHT22;6919;52.344;14.518;2022-07-01T10:22:48;30.30;1.00
13694;DHT22;6919;52.344;14.518;2022-07-01T10:25:40;30.50;1.00
13694;DHT22;6919;52.344;14.518;2022-07-01T10:28:22;30.70;99.90
13694;DHT22;6919;52.344;14.518;2022-07-01T10:31:03;30.90;1.00
13694;DHT22;6919;52.344;14.518;2022-07-01T10:33:39;30.90;1.00
13694;DHT22;6919;52.344;14.518;2022-07-01T10:36:16;30.80;1.00
13694;DHT22;6919;52.344;14.518;2022-07-01T10:39:11;30.90;26.00
13694;DHT22;6919;52.344;14.518;2022-07-01T10:42:00;30.60;1.00
13694;DHT22;6919;52.344;14.518;2022-07-01T10:45:17;30.60;1.00
13694;DHT22;6919;52.344;14.518;2022-07-01T10:47:45;30.30;99.90
13694;DHT22;6919;52.344;14.518;2022-07-01T10:50:15;30.20;99.90
13694;DHT22;6919;52.344;14.518;2022-07-01T10:53:00;30.30;99.90
13694;DHT22;6919;52.344;14.518;2022-07-01T10:55:38;30.10;99.90
13694;DHT22;6919;52.344;14.518;2022-07-01T10:58:08;29.80;1.00
13694;DHT22;6919;52.344;14.518;2022-07-01T11:00:41;29.50;1.00
13694;DHT22;6919;52.344;14.518;2022-07-01T11:03:19;28.90;99.90
13694;DHT22;6919;52.344;14.518;2022-07-01T11:05:52;27.70;1.00
13694;DHT22;6919;52.344;14.518;2022-07-01T11:08:22;24.70;26.90
13694;DHT22;6919;52.344;14.518;2022-07-01T11:11:00;23.70;99.90
13694;DHT22;6919;52.344;14.518;2022-07-01T11:13:32;22.80;99.90
13694;DHT22;6919;52.344;14.518;2022-07-01T11:16:04;22.10;99.90
13694;DHT22;6919;52.344;14.518;2022-07-01T11:18:34;21.90;99.90
13694;DHT22;6919;52.344;14.518;2022-07-01T11:21:07;21.80;99.90
13694;DHT22;6919;52.344;14.518;2022-07-01T11:23:37;21.60;99.90
13694;DHT22;6919;52.344;14.518;2022-07-01T11:26:20;21.30;99.90
13694;DHT22;6919;52.344;14.518;2022-07-01T11:28:52;21.30;99.90
13694;DHT22;6919;52.344;14.518;2022-07-01T11:31:28;21.20;99.90
13694;DHT22;6919;52.344;14.518;2022-07-01T11:33:57;21.20;99.90
13694;DHT22;6919;52.344;14.518;2022-07-01T11:36:25;21.50;99.90
13694;DHT22;6919;52.344;14.518;2022-07-01T11:39:11;21.60;99.90
13694;DHT22;6919;52.344;14.518;2022-07-01T11:41:54;21.60;99.90
13694;DHT22;6919;52.344;14.518;2022-07-01T11:44:31;21.70;99.90
13694;DHT22;6919;52.344;14.518;2022-07-01T11:47:02;21.90;99.90
13694;DHT22;6919;52.344;14.518;2022-07-01T11:49:31;22.00;99.90
13694;DHT22;6919;52.344;14.518;2022-07-01T11:52:03;22.30;99.90
13694;DHT22;6919;52.344;14.518;2022-07-01T11:54:36;22.40;99.90
13694;DHT22;6919;52.344;14.518;2022-07-01T11:57:12;22.50;94.20
13694;DHT22;6919;52.344;14.518;2022-07-01T11:59:44;22.60;97.70
13694;DHT22;6919;52.344;14.518;2022-07-01T12:02:16;22.80;63.10
13694;DHT22;6919;52.344;14.518;2022-07-01T12:04:46;22.90;41.60
13694;DHT22;6919;52.344;14.518;2022-07-01T12:07:19;22.90;5.20
13694;DHT22;6919;52.344;14.518;2022-07-01T12:09:49;22.80;1.00
13694;DHT22;6919;52.344;14.518;2022-07-01T12:12:20;22.70;1.00
13694;DHT22;6919;52.344;14.518;2022-07-01T12:14:52;22.90;1.00
13694;DHT22;6919;52.344;14.518;2022-07-01T12:17:22;23.10;1.00
13694;DHT22;6919;52.344;14.518;2022-07-01T12:19:51;23.20;1.00
13694;DHT22;6919;52.344;14.518;2022-07-01T12:22:22;23.20;1.00
13694;DHT22;6919;52.344;14.518;2022-07-01T12:25:03;23.20;1.00
13694;DHT22;6919;52.344;14.518;2022-07-01T12:27:35;23.30;1.00
13694;DHT22;6919;52.344;14.518;2022-07-01T12:30:06;23.10;1.00
13694;DHT22;6919;52.344;14.518;2022-07-01T12:32:39;23.10;1.00
13694;DHT22;6919;52.344;14.518;2022-07-01T12:35:09;23.90;1.00
13694;DHT22;6919;52.344;14.518;2022-07-01T12:37:57;24.40;1.00
13694;DHT22;6919;52.344;14.518;2022-07-01T12:40:28;24.80;35.90
13694;DHT22;6919;52.344;14.518;2022-07-01T12:42:58;24.70;1.00
13694;DHT22;6919;52.344;14.518;2022-07-01T12:45:39;24.50;1.00
13694;DHT22;6919;52.344;14.518;2022-07-01T12:48:08;24.70;6.30
13694;DHT22;6919;52.344;14.518;2022-07-01T12:50:36;25.10;1.00
13694;DHT22;6919;52.344;14.518;2022-07-01T12:53:06;25.50;1.00
13694;DHT22;6919;52.344;14.518;2022-07-01T12:55:38;25.40;99.90
13694;DHT22;6919;52.344;14.518;2022-07-01T12:58:10;25.60;99.90
13694;DHT22;6919;52.344;14.518;2022-07-01T13:00:41;26.40;99.90
13694;DHT22;6919;52.344;14.518;2022-07-01T13:03:10;26.60;1.00
13694;DHT22;6919;52.344;14.518;2022-07-01T13:05:40;26.30;21.60
13694;DHT22;6919;52.344;14.518;2022-07-01T13:08:09;26.80;99.90
13694;DHT22;6919;52.344;14.518;2022-07-01T13:10:38;26.90;1.00
13694;DHT22;6919;52.344;14.518;2022-07-01T13:13:08;27.20;89.10
13694;DHT22;6919;52.344;14.518;2022-07-01T13:15:37;27.70;1.00
13694;DHT22;6919;52.344;14.518;2022-07-01T13:18:06;28.50;99.90
13694;DHT22;6919;52.344;14.518;2022-07-01T13:20:35;27.90;1.00
13694;DHT22;6919;52.344;14.518;2022-07-01T13:23:05;28.70;99.90
13694;DHT22;6919;52.344;14.518;2022-07-01T13:25:33;28.70;1.00
13694;DHT22;6919;52.344;14.518;2022-07-01T13:28:02;28.60;1.00
13694;DHT22;6919;52.344;14.518;2022-07-01T13:30:32;28.40;1.00
13694;DHT22;6919;52.344;14.518;2022-07-01T13:33:02;28.50;1.00
13694;DHT22;6919;52.344;14.518;2022-07-01T13:35:31;27.80;1.00
13694;DHT22;6919;52.344;14.518;2022-07-01T13:37:59;28.40;1.00
13694;DHT22;6919;52.344;14.518;2022-07-01T13:40:27;29.00;1.00
13694;DHT22;6919;52.344;14.518;2022-07-01T13:42:55;28.80;1.00
13694;DHT22;6919;52.344;14.518;2022-07-01T13:45:24;29.30;1.00
13694;DHT22;6919;52.344;14.518;2022-07-01T13:47:54;27.60;1.00
13694;DHT22;6919;52.344;14.518;2022-07-01T13:50:22;26.80;99.90
13694;DHT22;6919;52.344;14.518;2022-07-01T13:52:50;26.60;1.00
13694;DHT22;6919;52.344;14.518;2022-07-01T13:55:19;27.40;1.00
13694;DHT22;6919;52.344;14.518;2022-07-01T13:57:47;27.00;99.90
13694;DHT22;6919;52.344;14.518;2022-07-01T14:00:16;26.90;99.90
13694;DHT22;6919;52.344;14.518;2022-07-01T14:02:45;27.60;99.90
13694;DHT22;6919;52.344;14.518;2022-07-01T14:05:17;27.50;99.90
13694;DHT22;6919;52.344;14.518;2022-07-01T14:07:46;27.00;1.00
13694;DHT22;6919;52.344;14.518;2022-07-01T14:10:15;26.80;2.40
13694;DHT22;6919;52.344;14.518;2022-07-01T14:12:43;26.30;99.90
13694;DHT22;6919;52.344;14.518;2022-07-01T14:15:12;26.00;1.00
13694;DHT22;6919;52.344;14.518;2022-07-01T14:17:40;25.70;1.00
13694;DHT22;6919;52.344;14.518;2022-07-01T14:20:10;24.50;1.00
13694;DHT22;6919;52.344;14.518;2022-07-01T14:22:40;24.40;99.90
13694;DHT22;6919;52.344;14.518;2022-07-01T14:25:08;24.50;99.90
13694;DHT22;6919;52.344;14.518;2022-07-01T14:27:36;24.30;1.00
13694;DHT22;6919;52.344;14.518;2022-07-01T14:30:06;24.00;99.90
13694;DHT22;6919;52.344;14.518;2022-07-01T14:32:35;23.60;1.00
13694;DHT22;6919;52.344;14.518;2022-07-01T14:35:05;23.20;99.90
13694;DHT22;6919;52.344;14.518;2022-07-01T14:37:35;23.10;65.10
13694;DHT22;6919;52.344;14.518;2022-07-01T14:40:06;23.20;1.00
13694;DHT22;6919;52.344;14.518;2022-07-01T14:42:35;22.80;99.90
13694;DHT22;6919;52.344;14.518;2022-07-01T14:45:05;22.60;1.00
13694;DHT22;6919;52.344;14.518;2022-07-01T14:47:34;22.80;1.00
13694;DHT22;6919;52.344;14.518;2022-07-01T14:50:03;22.80;99.90
13694;DHT22;6919;52.344;14.518;2022-07-01T14:52:32;22.80;99.90
13694;DHT22;6919;52.344;14.518;2022-07-01T14:55:00;22.50;1.00
13694;DHT22;6919;52.344;14.518;2022-07-01T14:57:30;22.10;1.00
13694;DHT22;6919;52.344;14.518;2022-07-01T14:59:58;21.80;1.00
13694;DHT22;6919;52.344;14.518;2022-07-01T15:02:28;21.30;1.00
13694;DHT22;6919;52.344;14.518;2022-07-01T15:04:56;20.90;1.00
13694;DHT22;6919;52.344;14.518;2022-07-01T15:07:24;20.90;1.00
13694;DHT22;6919;52.344;14.518;2022-07-01T15:09:55;20.80;1.00
13694;DHT22;6919;52.344;14.518;2022-07-01T15:12:26;20.70;1.00
13694;DHT22;6919;52.344;14.518;2022-07-01T15:14:56;20.60;1.00
13694;DHT22;6919;52.344;14.518;2022-07-01T15:17:24;20.60;1.00
13694;DHT22;6919;52.344;14.518;2022-07-01T15:19:53;20.50;1.00
13694;DHT22;6919;52.344;14.518;2022-07-01T15:22:21;20.50;1.00
13694;DHT22;6919;52.344;14.518;2022-07-01T15:24:49;20.20;1.00
13694;DHT22;6919;52.344;14.518;2022-07-01T15:27:17;20.30;1.00
13694;DHT22;6919;52.344;14.518;2022-07-01T15:29:45;20.30;1.00
13694;DHT22;6919;52.344;14.518;2022-07-01T15:32:15;20.20;1.00
13694;DHT22;6919;52.344;14.518;2022-07-01T15:34:44;20.00;11.00
13694;DHT22;6919;52.344;14.518;2022-07-01T15:37:13;19.80;25.30
13694;DHT22;6919;52.344;14.518;2022-07-01T15:39:41;19.80;45.40
13694;DHT22;6919;52.344;14.518;2022-07-01T15:42:09;19.80;37.30
13694;DHT22;6919;52.344;14.518;2022-07-01T15:44:37;19.70;43.70
13694;DHT22;6919;52.344;14.518;2022-07-01T15:47:07;19.80;31.30
13694;DHT22;6919;52.344;14.518;2022-07-01T15:49:53;19.90;28.40
13694;DHT22;6919;52.344;14.518;2022-07-01T15:52:21;19.40;44.80
13694;DHT22;6919;52.344;14.518;2022-07-01T15:54:49;19.60;42.80
13694;DHT22;6919;52.344;14.518;2022-07-01T15:57:18;19.50;40.10
13694;DHT22;6919;52.344;14.518;2022-07-01T15:59:46;19.50;47.90